Belle Terre, New York
Current Conditions -  °F | °C
As of 3:56 PM on Saturday 22 Nov 2014 (Local Time) from KISP Reporting Station
Broken Clouds Broken Clouds  
Wind Chill: 35°   Ceiling: 8000
Heat Index: 42°   Visibility: 10mi
Dew Point: 20°   Wind: 14mph
Humidity: 41%   Direction: 230°SW
Pressure: 30.26"   Gusts: NA
Location:  40.9503°N, 73.0617°W
Report Text: KISP 222056Z 23012KT 10SM BKN080 BKN250 06/M07 A3026 RMK AO2 SLP248 T00561067 56023
Loading
Personal Weather Stations






























Interactive Weather Map New forecast layout! Learn more

10-Day Weather Forecast

Advertisements
Track Severe Weather on mobile